Time;durP1;ratioP1;P1;durP2;ratioP2;P2;SDS_P1;SDS_P2;PMS_P1;PMS_P2;Temp;Humidity;BMP_temperature;BMP_pressure;BME280_temperature;BME280_humidity;BME280_pressure;Samples;Min_cycle;Max_cycle;Signal;HPM_P1;HPM_P2
2023/06/21 00:01:49;;;;;;;4.93;2.10;;;;;;;16.23;100.00;100423.03;7370222;19;20958;-36
2023/06/21 00:04:19;;;;;;;6.83;2.40;;;;;;;16.25;100.00;100421.31;7402149;19;20463;-36
2023/06/21 00:06:49;;;;;;;114.67;60.23;;;;;;;16.30;100.00;100393.63;7374458;19;20541;-36
2023/06/21 00:09:19;;;;;;;54.03;29.30;;;;;;;16.34;100.00;100368.50;7400398;19;20808;-36
2023/06/21 00:11:52;;;;;;;38.63;21.47;;;;;;;16.32;100.00;100350.25;7375130;19;20447;-35
2023/06/21 00:14:22;;;;;;;7.40;3.17;;;;;;;16.24;100.00;100371.88;7402825;19;20430;-36
2023/06/21 00:16:51;;;;;;;11.40;5.00;;;;;;;16.21;100.00;99880.84;7373507;19;20831;-36
2023/06/21 00:19:21;;;;;;;16.30;9.97;;;;;;;16.18;100.00;99831.38;7400268;19;20445;-36
2023/06/21 00:21:51;;;;;;;39.87;19.13;;;;;;;16.21;100.00;99701.31;7375446;19;20797;-35
2023/06/21 00:24:20;;;;;;;11.20;4.07;;;;;;;16.14;100.00;99726.44;7399840;19;20412;-36
2023/06/21 00:26:53;;;;;;;11.33;6.27;;;;;;;16.10;100.00;99302.38;7375160;19;20566;-36
2023/06/21 00:29:22;;;;;;;16.00;6.07;;;;;;;16.13;100.00;98782.94;7399590;19;20438;-36
2023/06/21 00:31:52;;;;;;;11.43;4.80;;;;;;;16.14;100.00;98729.16;7375708;19;20506;-35
2023/06/21 00:34:21;;;;;;;11.03;5.43;;;;;;;16.14;100.00;98726.53;7398803;19;20419;-37
2023/06/21 00:36:52;;;;;;;11.50;4.20;;;;;;;16.15;100.00;98821.94;7374095;19;20479;-36
2023/06/21 00:39:22;;;;;;;9.63;3.33;;;;;;;16.11;100.00;98887.88;7399720;19;20451;-37
2023/06/21 00:41:54;;;;;;;6.80;3.10;;;;;;;16.13;100.00;98771.66;7374790;19;20434;-36
2023/06/21 00:44:24;;;;;;;5.03;2.40;;;;;;;16.11;100.00;98789.03;7398966;19;20414;-37
2023/06/21 00:46:53;;;;;;;8.40;2.87;;;;;;;16.12;100.00;98828.03;7375169;19;20526;-35
2023/06/21 00:49:23;;;;;;;6.07;2.60;;;;;;;16.13;100.00;98808.06;7400638;19;20432;-36
2023/06/21 00:51:57;;;;;;;5.50;2.30;;;;;;;16.10;100.00;99042.22;7375419;19;20510;-34
2023/06/21 00:54:29;;;;;;;4.70;2.27;;;;;;;16.13;100.00;98966.75;7399420;19;20499;-36
2023/06/21 00:57:02;;;;;;;6.30;2.50;;;;;;;16.14;100.00;98857.47;7373622;19;20462;-36
2023/06/21 00:59:32;;;;;;;9.03;2.77;;;;;;;16.25;100.00;98849.53;7400295;19;20420;-34
2023/06/21 01:02:03;;;;;;;6.17;2.67;;;;;;;16.21;100.00;98931.13;7374604;19;20450;-36
2023/06/21 01:04:34;;;;;;;4.90;2.10;;;;;;;16.32;100.00;98947.47;7399572;19;20415;-36
2023/06/21 01:07:14;;;;;;;7.60;3.07;;;;;;;16.26;100.00;98950.13;7374053;19;20573;-33
2023/06/21 01:09:54;;;;;;;4.60;1.93;;;;;;;16.16;100.00;99086.41;7401438;19;20395;-34
2023/06/21 01:12:40;;;;;;;4.57;1.93;;;;;;;16.23;100.00;98846.13;7375237;19;20882;-35
2023/06/21 01:15:14;;;;;;;5.43;2.50;;;;;;;16.31;100.00;98973.53;7400748;19;20415;-34
2023/06/21 01:17:46;;;;;;;7.90;2.70;;;;;;;16.35;100.00;98987.38;7376833;19;20477;-35
2023/06/21 01:20:23;;;;;;;4.97;2.47;;;;;;;16.36;100.00;99226.75;7377155;19;20440;-35
2023/06/21 01:23:06;;;;;;;7.10;3.30;;;;;;;16.30;100.00;99389.00;7397766;19;20415;-34
2023/06/21 01:25:57;;;;;;;6.60;2.30;;;;;;;16.14;100.00;99440.22;7379135;19;20391;-36
2023/06/21 01:28:44;;;;;;;5.77;2.17;;;;;;;16.16;100.00;99407.25;7399499;19;21035;-35
2023/06/21 01:31:18;;;;;;;8.43;2.20;;;;;;;16.14;100.00;99536.50;7374446;19;20411;-36
2023/06/21 01:33:49;;;;;;;8.60;2.60;;;;;;;16.20;100.00;99504.38;7398019;19;20415;-37
2023/06/21 01:36:19;;;;;;;8.20;3.23;;;;;;;16.22;100.00;99837.47;7376572;19;20425;-35
2023/06/21 01:38:49;;;;;;;5.30;2.47;;;;;;;16.23;100.00;99871.31;7400394;19;20952;-35
2023/06/21 01:41:19;;;;;;;6.73;2.73;;;;;;;16.23;100.00;99881.72;7375577;19;20818;-35
2023/06/21 01:43:49;;;;;;;6.93;2.60;;;;;;;16.21;100.00;99878.25;7397560;19;20407;-37
2023/06/21 01:46:24;;;;;;;4.20;2.17;;;;;;;16.18;100.00;99888.63;7376289;19;20510;-37
2023/06/21 01:48:54;;;;;;;5.53;2.30;;;;;;;16.16;100.00;99911.19;7399506;19;20406;-36
2023/06/21 01:51:24;;;;;;;3.90;2.03;;;;;;;16.11;100.00;99911.16;7375823;19;20542;-34
2023/06/21 01:53:53;;;;;;;4.50;2.17;;;;;;;16.12;100.00;99930.22;7398414;19;20761;-34
2023/06/21 01:56:24;;;;;;;4.10;2.20;;;;;;;16.10;100.00;99932.81;7375340;19;20511;-37
2023/06/21 01:58:54;;;;;;;6.10;2.70;;;;;;;16.11;100.00;99938.91;7401192;19;20488;-35
2023/06/21 02:01:27;;;;;;;8.80;2.90;;;;;;;16.20;100.00;99975.38;7373205;19;20435;-34
2023/06/21 02:03:59;;;;;;;4.13;2.23;;;;;;;16.28;100.00;99991.03;7398839;19;20509;-34
2023/06/21 02:06:31;;;;;;;7.70;2.80;;;;;;;16.24;100.00;100012.72;7375419;19;20447;-35
2023/06/21 02:09:05;;;;;;;7.33;2.90;;;;;;;16.22;100.00;100046.53;7398425;19;20424;-34
2023/06/21 02:11:35;;;;;;;5.93;2.73;;;;;;;16.31;100.00;100038.78;7375249;19;20513;-35
2023/06/21 02:14:05;;;;;;;8.73;3.50;;;;;;;16.37;100.00;100050.09;7399883;19;20415;-33
2023/06/21 02:16:37;;;;;;;5.27;2.97;;;;;;;16.37;100.00;100050.09;7374720;19;20502;-36
2023/06/21 02:19:07;;;;;;;5.90;2.80;;;;;;;16.32;100.00;100066.53;7398363;19;20440;-37
2023/06/21 02:21:37;;;;;;;6.13;3.60;;;;;;;16.35;100.00;100059.63;7373747;19;20425;-34
2023/06/21 02:24:07;;;;;;;8.63;3.43;;;;;;;16.42;100.00;100051.00;7398713;19;20403;-35
2023/06/21 02:26:37;;;;;;;8.67;3.43;;;;;;;16.42;100.00;100186.38;7375707;19;20454;-35
2023/06/21 02:29:06;;;;;;;6.80;3.50;;;;;;;16.45;100.00;100070.13;7399162;19;20451;-35
2023/06/21 02:31:39;;;;;;;9.47;3.60;;;;;;;16.49;100.00;100026.75;7375103;19;20823;-34
2023/06/21 02:34:08;;;;;;;7.57;3.83;;;;;;;16.53;100.00;100005.06;7398521;19;20422;-34
2023/06/21 02:36:38;;;;;;;6.50;3.57;;;;;;;16.55;100.00;100039.78;7373641;19;20889;-33
2023/06/21 02:39:09;;;;;;;8.53;5.10;;;;;;;16.55;100.00;100055.41;7397230;19;20777;-36
2023/06/21 02:41:38;;;;;;;9.10;4.87;;;;;;;16.59;100.00;100072.81;7373415;19;20461;-36
2023/06/21 02:44:08;;;;;;;9.67;5.23;;;;;;;16.62;100.00;100107.53;7398146;19;20491;-36
2023/06/21 02:46:40;;;;;;;11.27;4.43;;;;;;;16.93;100.00;100087.75;7374216;19;20419;-34
2023/06/21 02:49:09;;;;;;;11.83;4.80;;;;;;;16.62;100.00;100118.84;7398534;19;20488;-36
2023/06/21 02:51:39;;;;;;;8.53;4.80;;;;;;;16.64;100.00;100142.25;7373788;19;20510;-34
2023/06/21 02:54:09;;;;;;;8.73;4.93;;;;;;;16.65;100.00;100159.63;7396974;19;20416;-34
2023/06/21 02:56:38;;;;;;;9.97;5.40;;;;;;;16.94;100.00;100143.31;7373252;19;20843;-35
2023/06/21 02:59:08;;;;;;;16.80;5.33;;;;;;;17.04;100.00;100152.97;7397562;19;20483;-36
2023/06/21 03:01:40;;;;;;;11.20;5.93;;;;;;;16.66;100.00;100190.91;7373720;19;20869;-35
2023/06/21 03:04:11;;;;;;;8.90;5.03;;;;;;;16.55;100.00;100222.06;7397111;19;20419;-37
2023/06/21 03:06:41;;;;;;;10.27;5.27;;;;;;;16.53;100.00;100241.13;7373435;19;20447;-34
2023/06/21 03:09:11;;;;;;;9.67;5.90;;;;;;;16.52;100.00;100252.41;7397313;19;20423;-36
2023/06/21 03:11:41;;;;;;;8.20;5.47;;;;;;;16.51;100.00;100261.94;7373523;19;20431;-36
2023/06/21 03:14:11;;;;;;;10.00;6.67;;;;;;;16.50;100.00;100265.41;7397152;19;20420;-36
2023/06/21 03:16:44;;;;;;;10.57;5.93;;;;;;;16.50;100.00;100270.63;7372780;19;20470;-36
2023/06/21 03:19:13;;;;;;;12.33;6.80;;;;;;;16.52;100.00;100257.63;7398949;19;20414;-36
2023/06/21 03:21:43;;;;;;;11.13;7.57;;;;;;;16.53;100.00;100275.88;7371213;19;20455;-36
2023/06/21 03:24:13;;;;;;;15.03;7.37;;;;;;;16.54;100.00;100280.22;7395925;19;20407;-37
2023/06/21 03:26:44;;;;;;;14.33;9.00;;;;;;;16.54;100.00;100284.53;7372983;19;21138;-36
2023/06/21 03:29:14;;;;;;;13.13;7.47;;;;;;;16.55;100.00;100305.38;7399124;19;20424;-37
2023/06/21 03:31:46;;;;;;;14.07;7.10;;;;;;;16.58;100.00;100331.47;7371850;19;20462;-36
2023/06/21 03:34:15;;;;;;;13.30;7.37;;;;;;;16.68;100.00;100104.97;7398381;19;20403;-35
2023/06/21 03:36:45;;;;;;;11.67;6.57;;;;;;;16.74;100.00;100040.78;7371316;19;20477;-35
2023/06/21 03:39:15;;;;;;;13.67;7.30;;;;;;;16.61;100.00;100049.38;7403872;19;21116;-37
2023/06/21 03:41:44;;;;;;;18.90;8.33;;;;;;;16.65;100.00;100082.38;7375456;19;20427;-38
2023/06/21 03:44:14;;;;;;;15.47;8.40;;;;;;;16.56;100.00;100108.38;7401266;19;20416;-38
2023/06/21 03:46:46;;;;;;;13.73;9.23;;;;;;;16.63;100.00;100171.78;7376692;19;20475;-38
2023/06/21 03:49:17;;;;;;;16.83;8.67;;;;;;;16.59;100.00;100156.13;7401385;19;20407;-38
2023/06/21 03:51:46;;;;;;;13.87;8.60;;;;;;;16.60;100.00;100181.31;7377211;19;20816;-38
2023/06/21 03:54:16;;;;;;;16.23;8.23;;;;;;;16.62;100.00;100232.53;7395140;19;20411;-37
2023/06/21 03:56:46;;;;;;;15.27;9.30;;;;;;;16.59;100.00;100260.31;7374985;19;20467;-38
2023/06/21 03:59:16;;;;;;;15.20;8.70;;;;;;;16.59;100.00;100304.56;7403526;19;20941;-38
2023/06/21 04:01:48;;;;;;;19.07;8.90;;;;;;;16.62;100.00;100331.50;7375485;19;20442;-38
2023/06/21 04:04:18;;;;;;;14.60;9.23;;;;;;;16.63;100.00;100354.06;7400542;19;20411;-39
2023/06/21 04:06:47;;;;;;;14.63;9.37;;;;;;;16.65;100.00;100409.63;7374413;19;20877;-39
2023/06/21 04:09:18;;;;;;;15.27;8.73;;;;;;;16.70;100.00;100418.38;7400104;19;20436;-38
2023/06/21 04:11:48;;;;;;;13.20;8.60;;;;;;;16.77;100.00;100463.63;7373801;19;20439;-38
2023/06/21 04:14:18;;;;;;;17.00;8.60;;;;;;;16.83;100.00;100571.34;7399342;19;20428;-36
2023/06/21 04:16:50;;;;;;;15.30;8.43;;;;;;;16.89;100.00;100724.31;7373809;19;20467;-36
2023/06/21 04:19:20;;;;;;;12.23;7.90;;;;;;;16.89;100.00;100739.94;7401565;19;20424;-39
2023/06/21 04:21:50;;;;;;;12.90;8.57;;;;;;;16.90;100.00;100766.84;7373974;19;20454;-39
2023/06/21 04:24:20;;;;;;;12.70;8.20;;;;;;;16.90;100.00;100837.22;7398464;19;20950;-36
2023/06/21 04:26:50;;;;;;;14.67;8.47;;;;;;;16.88;100.00;100852.84;7373304;19;20526;-36
2023/06/21 04:29:22;;;;;;;14.50;8.90;;;;;;;16.94;100.00;100880.72;7400522;19;20419;-37
2023/06/21 04:31:55;;;;;;;13.73;8.30;;;;;;;16.95;100.00;100887.69;7376196;19;20463;-37
2023/06/21 04:34:27;;;;;;;16.10;8.40;;;;;;;16.98;100.00;100895.56;7401320;19;20486;-35
2023/06/21 04:36:57;;;;;;;12.60;8.90;;;;;;;17.00;100.00;100891.25;7373817;19;20467;-38
2023/06/21 04:39:27;;;;;;;12.40;9.17;;;;;;;17.07;100.00;100885.31;7399864;19;20411;-38
2023/06/21 04:41:58;;;;;;;12.33;8.93;;;;;;;17.05;100.00;100918.31;7374008;19;20443;-39
2023/06/21 04:44:27;;;;;;;15.73;8.83;;;;;;;17.06;100.00;100917.44;7398876;19;20408;-39
2023/06/21 04:47:00;;;;;;;13.87;8.97;;;;;;;17.06;100.00;100922.66;7373515;19;20494;-39
2023/06/21 04:49:31;;;;;;;12.10;9.03;;;;;;;17.12;100.00;100934.91;7402289;19;20962;-38
2023/06/21 04:52:01;;;;;;;14.83;9.90;;;;;;;17.18;100.00;100936.78;7375129;19;20431;-39
2023/06/21 04:54:32;;;;;;;14.40;10.33;;;;;;;17.19;100.00;100944.63;7398249;19;20403;-38
2023/06/21 04:57:02;;;;;;;17.30;10.40;;;;;;;17.24;100.00;100975.97;7374937;19;20807;-36
2023/06/21 04:59:32;;;;;;;16.60;10.20;;;;;;;17.22;100.00;100975.94;7402552;19;20422;-37
2023/06/21 05:02:05;;;;;;;17.10;11.43;;;;;;;17.30;100.00;100978.69;7374018;19;20526;-37
2023/06/21 05:04:34;;;;;;;18.27;11.60;;;;;;;17.32;100.00;100971.78;7399357;19;20494;-38
2023/06/21 05:07:05;;;;;;;18.90;12.63;;;;;;;17.36;100.00;101036.16;7373802;19;20458;-36
2023/06/21 05:09:34;;;;;;;21.07;12.30;;;;;;;17.46;100.00;100945.03;7404011;19;20411;-43
2023/06/21 05:12:04;;;;;;;17.60;11.77;;;;;;;17.47;100.00;100926.81;7374134;19;20423;-36
2023/06/21 05:14:34;;;;;;;20.00;13.27;;;;;;;17.56;100.00;100949.56;7401236;19;20404;-37
2023/06/21 05:17:06;;;;;;;23.43;12.67;;;;;;;17.51;100.00;100939.06;7374946;19;20565;-37
2023/06/21 05:19:36;;;;;;;21.47;12.13;;;;;;;17.49;100.00;100942.50;7400771;19;20411;-37
2023/06/21 05:22:07;;;;;;;20.83;12.27;;;;;;;17.43;100.00;100932.81;7375428;19;20438;-37
2023/06/21 05:24:37;;;;;;;21.30;13.30;;;;;;;17.48;100.00;106463.25;7400918;19;20415;-39
2023/06/21 05:27:09;;;;;;;20.63;14.00;;;;;;;17.50;100.00;106670.66;7373076;19;20473;-38
2023/06/21 05:29:38;;;;;;;19.17;13.90;;;;;;;17.51;100.00;106741.34;7402013;19;20424;-36
2023/06/21 05:32:11;;;;;;;25.80;15.97;;;;;;;17.50;100.00;106781.31;7375658;19;20468;-37
2023/06/21 05:34:40;;;;;;;21.37;15.77;;;;;;;17.44;100.00;106811.97;7402847;19;20407;-37
2023/06/21 05:37:10;;;;;;;27.80;17.80;;;;;;;17.36;100.00;106834.63;7371275;19;20550;-39
2023/06/21 05:39:40;;;;;;;30.47;18.10;;;;;;;17.33;100.00;106878.66;7401004;19;20411;-39
2023/06/21 05:42:10;;;;;;;35.40;21.40;;;;;;;17.31;100.00;106932.41;7369764;19;20853;-39
2023/06/21 05:44:40;;;;;;;34.10;22.70;;;;;;;17.28;100.00;90424.09;7399986;19;20433;-38
2023/06/21 05:47:13;;;;;;;41.17;24.90;;;;;;;17.23;100.00;98896.91;7375827;19;20539;-38
2023/06/21 05:49:43;;;;;;;43.93;26.20;;;;;;;17.18;100.00;99057.66;7403163;19;20425;-40
2023/06/21 05:52:13;;;;;;;43.77;23.70;;;;;;;17.16;100.00;99151.47;7375869;19;20522;-37
2023/06/21 05:54:44;;;;;;;47.90;25.57;;;;;;;17.17;100.00;99227.91;7402182;19;20407;-37
2023/06/21 05:57:15;;;;;;;50.03;26.10;;;;;;;17.21;100.00;99286.91;7371990;19;20463;-39
2023/06/21 05:59:45;;;;;;;55.40;29.67;;;;;;;17.20;100.00;99329.47;7401004;19;20412;-37
2023/06/21 06:02:17;;;;;;;52.83;29.27;;;;;;;17.23;100.00;99377.22;7375062;19;20838;-37
2023/06/21 06:04:48;;;;;;;55.67;30.27;;;;;;;17.24;100.00;99404.16;7399164;19;20412;-39
2023/06/21 06:07:19;;;;;;;51.27;30.33;;;;;;;17.28;100.00;99431.97;7375284;19;20458;-36
2023/06/21 06:09:48;;;;;;;52.00;29.43;;;;;;;17.33;100.00;99451.00;7398262;19;20951;-39
2023/06/21 06:12:18;;;;;;;59.67;32.90;;;;;;;17.39;100.00;99476.19;7374553;19;20439;-38
2023/06/21 06:14:48;;;;;;;59.23;33.60;;;;;;;17.52;100.00;99503.03;7400723;19;20387;-38
2023/06/21 06:17:20;;;;;;;61.40;32.90;;;;;;;17.54;100.00;99537.78;7372681;19;20459;-40
2023/06/21 06:19:50;;;;;;;51.07;31.23;;;;;;;17.64;100.00;99560.31;7398246;19;20408;-39
2023/06/21 06:22:19;;;;;;;57.83;32.80;;;;;;;17.73;100.00;99571.56;7375419;19;20472;-41
2023/06/21 06:24:50;;;;;;;56.73;33.60;;;;;;;17.73;100.00;99569.81;7398328;19;20411;-39
2023/06/21 06:27:19;;;;;;;56.53;32.83;;;;;;;17.72;100.00;99565.47;7374316;19;20459;-38
2023/06/21 06:29:49;;;;;;;53.33;31.47;;;;;;;17.85;100.00;99581.94;7399006;19;20424;-39
2023/06/21 06:32:22;;;;;;;62.37;34.23;;;;;;;17.99;100.00;99594.00;7374801;19;20467;-38
2023/06/21 06:34:51;;;;;;;52.17;34.37;;;;;;;18.08;100.00;99607.00;7398250;19;20435;-37
2023/06/21 06:37:24;;;;;;;58.07;34.30;;;;;;;18.14;100.00;99620.00;7374388;19;20518;-38
2023/06/21 06:40:00;;;;;;;52.53;31.20;;;;;;;18.13;100.00;99620.88;7397994;19;20411;-38
2023/06/21 06:42:30;;;;;;;52.10;33.73;;;;;;;18.08;100.00;99613.09;7374433;19;20466;-38
2023/06/21 06:44:59;;;;;;;50.60;32.87;;;;;;;18.08;100.00;99612.22;7398500;19;20476;-39
2023/06/21 06:47:31;;;;;;;52.87;33.17;;;;;;;18.08;100.00;99613.09;7373966;19;20486;-38
2023/06/21 06:50:02;;;;;;;51.63;32.27;;;;;;;18.11;100.00;99694.84;7398811;19;20913;-38
2023/06/21 06:52:32;;;;;;;55.40;31.67;;;;;;;18.09;100.00;99621.78;7374390;19;20427;-39
2023/06/21 06:55:03;;;;;;;52.33;34.40;;;;;;;18.18;100.00;99641.72;7399785;19;20418;-36
2023/06/21 06:57:33;;;;;;;51.60;33.07;;;;;;;18.22;100.00;99646.91;7369182;19;20459;-39
2023/06/21 07:00:15;;;;;;;48.33;31.87;;;;;;;18.28;100.00;99634.69;7399259;19;20399;-38
2023/06/21 07:02:47;;;;;;;43.17;28.97;;;;;;;18.33;100.00;99645.97;7375612;19;20447;-39
2023/06/21 07:05:17;;;;;;;182.23;129.13;;;;;;;18.39;100.00;99674.63;7374346;19;20450;-38
2023/06/21 07:07:47;;;;;;;69.57;39.77;;;;;;;18.27;100.00;99679.94;7395265;19;20859;-33
2023/06/21 07:10:17;;;;;;;54.63;34.80;;;;;;;18.19;100.00;99646.06;7379226;19;20833;-33
2023/06/21 07:12:49;;;;;;;50.77;32.27;;;;;;;18.29;100.00;99767.81;7399625;19;20403;-32
2023/06/21 07:15:19;;;;;;;57.73;34.67;;;;;;;18.26;100.00;99914.06;7375262;19;20958;-32
2023/06/21 07:17:51;;;;;;;46.23;31.70;;;;;;;18.38;100.00;100119.41;7397565;19;21323;-35
2023/06/21 07:20:20;;;;;;;70.17;41.63;;;;;;;18.26;100.00;100106.38;7376376;19;20475;-35
2023/06/21 07:22:50;;;;;;;64.47;39.13;;;;;;;18.30;100.00;100152.50;7396341;19;20439;-34
2023/06/21 07:25:20;;;;;;;42.93;30.10;;;;;;;18.30;100.00;100192.50;7376260;19;20487;-35
2023/06/21 07:27:49;;;;;;;75.03;46.20;;;;;;;18.34;100.00;100209.06;7397394;19;20443;-34
2023/06/21 07:30:20;;;;;;;49.67;33.43;;;;;;;18.35;100.00;100190.78;7375821;19;20788;-35
2023/06/21 07:32:53;;;;;;;46.00;31.10;;;;;;;18.40;100.00;100125.50;7399399;19;20395;-32
2023/06/21 07:35:22;;;;;;;58.77;35.60;;;;;;;18.57;100.00;100142.91;7377615;19;20464;-33
2023/06/21 07:37:52;;;;;;;41.73;27.40;;;;;;;18.44;100.00;100027.13;7398233;19;20983;-35
2023/06/21 07:40:22;;;;;;;42.20;29.20;;;;;;;18.44;100.00;100003.63;7375945;19;20403;-36
2023/06/21 07:42:51;;;;;;;44.50;29.90;;;;;;;18.45;100.00;99964.44;7398595;19;20391;-36
2023/06/21 07:45:21;;;;;;;40.03;26.23;;;;;;;18.70;100.00;100092.38;7376342;19;20742;-36
2023/06/21 07:47:53;;;;;;;38.17;25.50;;;;;;;18.63;100.00;99897.34;7398641;19;20464;-36
2023/06/21 07:50:26;;;;;;;30.90;23.17;;;;;;;18.86;100.00;100006.06;7378763;19;20403;-35
2023/06/21 07:52:55;;;;;;;33.90;25.20;;;;;;;18.85;100.00;100064.44;7399667;19;20474;-36
2023/06/21 07:55:25;;;;;;;43.70;30.93;;;;;;;19.10;100.00;100321.47;7376696;19;20416;-36
2023/06/21 07:57:55;;;;;;;27.30;21.07;;;;;;;19.35;100.00;100358.06;7399477;19;20455;-36
2023/06/21 08:00:24;;;;;;;54.03;35.60;;;;;;;19.29;100.00;100304.00;7378898;19;20949;-35
2023/06/21 08:02:57;;;;;;;182.50;95.57;;;;;;;19.29;100.00;100395.53;7398791;19;20415;-35
2023/06/21 08:05:26;;;;;;;30.93;24.07;;;;;;;19.20;100.00;100416.47;7376819;19;20404;-36
2023/06/21 08:08:01;;;;;;;43.87;30.20;;;;;;;19.26;100.00;100474.00;7400578;19;20474;-36
2023/06/21 08:10:31;;;;;;;29.03;20.93;;;;;;;19.03;100.00;100443.44;7376823;19;20421;-37
2023/06/21 08:13:01;;;;;;;29.77;22.90;;;;;;;18.88;100.00;100431.19;7399953;19;20434;-36
2023/06/21 08:15:31;;;;;;;53.60;34.77;;;;;;;18.68;100.00;100407.63;7378600;19;20818;-36
2023/06/21 08:18:03;;;;;;;33.30;26.17;;;;;;;18.64;100.00;100465.97;7398253;19;20463;-36
2023/06/21 08:20:33;;;;;;;46.60;32.97;;;;;;;18.63;100.00;100427.66;7375113;19;20427;-36
2023/06/21 08:23:03;;;;;;;44.33;31.10;;;;;;;18.86;100.00;100346.69;7398126;19;20515;-36
2023/06/21 08:25:32;;;;;;;34.90;25.40;;;;;;;19.00;100.00;100289.19;7378020;19;20419;-36
2023/06/21 08:28:02;;;;;;;39.17;29.50;;;;;;;19.03;100.00;100247.38;7399092;19;20860;-36
2023/06/21 08:30:32;;;;;;;55.10;35.57;;;;;;;19.30;100.00;100222.03;7373720;19;20411;-35
2023/06/21 08:33:04;;;;;;;85.93;47.90;;;;;;;19.21;100.00;100211.63;7397522;19;20415;-36
2023/06/21 08:35:33;;;;;;;36.90;25.03;;;;;;;19.27;100.00;100177.63;7374963;19;20392;-35
2023/06/21 08:38:03;;;;;;;28.10;22.10;;;;;;;19.29;100.00;100160.16;7397852;19;20472;-35
2023/06/21 08:40:53;;;;;;;153.47;74.60;;;;;;;19.38;100.00;100104.34;7375353;19;20453;-36
2023/06/21 08:43:23;;;;;;;50.83;29.10;;;;;;;19.15;100.00;100049.56;7399495;19;20766;-36
2023/06/21 08:45:53;;;;;;;42.60;26.70;;;;;;;19.26;100.00;99992.84;7372911;19;20457;-36
2023/06/21 08:48:25;;;;;;;25.60;18.10;;;;;;;19.36;100.00;99967.50;7398802;19;20805;-36
2023/06/21 08:50:55;;;;;;;42.57;28.13;;;;;;;19.39;100.00;99946.53;7372875;19;20431;-37
2023/06/21 08:53:30;;;;;;;28.17;19.67;;;;;;;19.50;100.00;99948.22;7398765;19;20931;-36
2023/06/21 08:56:01;;;;;;;23.10;15.30;;;;;;;19.51;100.00;100002.25;7375064;19;21178;-36
2023/06/21 08:58:34;;;;;;;21.03;14.90;;;;;;;19.63;100.00;100048.41;7398517;19;20474;-36
2023/06/21 09:01:04;;;;;;;19.10;13.80;;;;;;;19.75;100.00;100043.09;7374874;19;20415;-35
2023/06/21 09:03:43;;;;;;;27.43;17.10;;;;;;;19.75;100.00;100058.78;7397565;19;20421;-35
2023/06/21 09:06:17;;;;;;;26.20;15.70;;;;;;;19.78;100.00;100058.75;7373497;19;20419;-36
2023/06/21 09:08:48;;;;;;;17.37;12.83;;;;;;;20.14;100.00;100049.78;7399164;19;20447;-36
2023/06/21 09:11:20;;;;;;;59.50;32.67;;;;;;;20.25;100.00;100063.63;7374701;19;20451;-36
2023/06/21 09:13:50;;;;;;;22.70;13.07;;;;;;;20.39;100.00;100086.22;7399347;19;20414;-36
2023/06/21 09:16:21;;;;;;;46.10;26.97;;;;;;;20.53;100.00;100105.28;7373990;19;20452;-35
2023/06/21 09:18:54;;;;;;;20.40;12.40;;;;;;;20.42;100.00;100094.03;7396334;19;20522;-37
2023/06/21 09:21:24;;;;;;;19.43;13.13;;;;;;;20.45;100.00;100087.00;7373371;19;21376;-37
2023/06/21 09:23:54;;;;;;;21.83;14.43;;;;;;;20.70;100.00;100054.44;7397504;19;20480;-36
2023/06/21 09:26:23;;;;;;;43.00;20.00;;;;;;;20.99;100.00;99966.75;7372259;19;20427;-36
2023/06/21 09:28:53;;;;;;;16.27;11.67;;;;;;;21.13;100.00;99870.38;7397355;19;20464;-35
2023/06/21 09:31:22;;;;;;;23.07;14.47;;;;;;;21.31;100.00;99878.84;7371541;19;20503;-36
2023/06/21 09:33:56;;;;;;;31.83;17.97;;;;;;;21.63;100.00;99864.28;7396032;19;20404;-35
2023/06/21 09:36:26;;;;;;;17.80;12.47;;;;;;;21.93;100.00;99851.50;7371995;19;20419;-35
2023/06/21 09:39:08;;;;;;;24.93;15.47;;;;;;;22.02;100.00;99902.09;7395809;19;20422;-35
2023/06/21 09:41:38;;;;;;;16.27;10.17;;;;;;;22.10;100.00;99942.22;7372939;19;20429;-36
2023/06/21 09:44:08;;;;;;;25.60;15.93;;;;;;;21.76;100.00;100000.59;7395385;19;20411;-35
2023/06/21 09:46:37;;;;;;;13.90;9.17;;;;;;;22.18;100.00;99992.84;7370627;19;20459;-36
2023/06/21 09:49:13;;;;;;;13.87;8.83;;;;;;;22.32;100.00;99991.72;7396105;19;20478;-36
2023/06/21 09:51:47;;;;;;;13.83;9.10;;;;;;;22.40;100.00;99995.06;7371487;19;20421;-35
2023/06/21 09:54:17;;;;;;;60.03;32.43;;;;;;;22.44;100.00;99982.72;7396375;19;20478;-36
2023/06/21 09:56:47;;;;;;;32.10;17.83;;;;;;;22.51;100.00;99994.88;7371285;19;20449;-36
2023/06/21 09:59:17;;;;;;;52.13;28.97;;;;;;;22.81;100.00;100002.19;7395133;19;20761;-37
2023/06/21 10:01:48;;;;;;;20.17;10.53;;;;;;;23.04;100.00;100007.81;7372462;19;20429;-35
2023/06/21 10:04:20;;;;;;;23.77;15.07;;;;;;;22.34;100.00;100114.28;7395076;19;20412;-34
2023/06/21 10:06:54;;;;;;;17.00;11.33;;;;;;;22.51;100.00;100142.91;7369737;19;20451;-35
2023/06/21 10:09:24;;;;;;;32.50;21.57;;;;;;;22.89;100.00;100118.56;7395850;19;20491;-37
2023/06/21 10:11:54;;;;;;;19.47;12.47;;;;;;;22.64;100.00;100182.13;7369195;19;20479;-36
2023/06/21 10:14:26;;;;;;;27.20;16.43;;;;;;;22.81;100.00;100268.59;7394881;19;20935;-35
2023/06/21 10:16:56;;;;;;;21.63;11.50;;;;;;;22.64;100.00;100316.19;7369856;19;20489;-35
2023/06/21 10:19:29;;;;;;;40.17;23.80;;;;;;;22.82;100.00;100336.09;7396746;19;20398;-35
2023/06/21 10:22:06;;;;;;;37.33;21.77;;;;;;;23.06;100.00;100334.81;7369576;19;20494;-35
2023/06/21 10:24:39;;;;;;;15.90;10.43;;;;;;;23.22;100.00;100302.94;7394123;19;20399;-35
2023/06/21 10:27:09;;;;;;;37.37;22.00;;;;;;;23.22;100.00;100329.25;7369872;19;20538;-34
2023/06/21 10:29:41;;;;;;;16.80;11.80;;;;;;;23.02;100.00;100327.84;7397268;19;20535;-34
2023/06/21 10:32:11;;;;;;;29.57;18.60;;;;;;;22.86;100.00;100326.38;7369513;19;20451;-34
2023/06/21 10:34:52;;;;;;;14.27;10.20;;;;;;;23.02;100.00;100330.47;7386968;19;20408;-36
2023/06/21 10:37:26;;;;;;;17.33;10.40;;;;;;;22.94;100.00;100371.81;7368533;19;20467;-35
2023/06/21 10:39:57;;;;;;;37.90;21.40;;;;;;;22.86;100.00;100368.47;7393708;19;20805;-37
2023/06/21 10:42:39;;;;;;;19.13;11.30;;;;;;;22.41;100.00;100380.47;7371125;19;20447;-35
2023/06/21 10:45:10;;;;;;;32.30;19.10;;;;;;;22.34;100.00;100370.88;7393999;19;20399;-34
2023/06/21 10:47:41;;;;;;;33.70;20.80;;;;;;;22.45;100.00;100349.75;7368958;19;20459;-35
2023/06/21 10:50:14;;;;;;;28.17;17.93;;;;;;;22.77;100.00;100344.03;7393864;19;20400;-35
2023/06/21 10:52:44;;;;;;;21.63;14.47;;;;;;;22.86;100.00;100385.09;7371090;19;20438;-34
2023/06/21 10:55:16;;;;;;;23.40;14.10;;;;;;;22.75;100.00;100398.41;7370177;19;20410;-34
2023/06/21 10:57:46;;;;;;;16.93;12.13;;;;;;;22.81;100.00;100346.63;7391218;19;20451;-36
2023/06/21 11:00:17;;;;;;;67.60;37.50;;;;;;;23.01;100.00;100341.91;7371430;19;20511;-35
2023/06/21 11:02:47;;;;;;;52.50;26.13;;;;;;;23.25;100.00;100339.75;7391471;19;20428;-35
2023/06/21 11:05:21;;;;;;;10.80;8.53;;;;;;;23.52;100.00;100347.22;7369313;19;20824;-36
2023/06/21 11:07:53;;;;;;;20.80;13.10;;;;;;;23.13;100.00;100397.84;7393618;19;20442;-37
2023/06/21 11:10:24;;;;;;;20.47;11.03;;;;;;;23.44;100.00;100407.88;7373207;19;20475;-37
2023/06/21 11:12:58;;;;;;;16.03;10.70;;;;;;;23.45;100.00;100478.03;7393421;19;20399;-36
2023/06/21 11:15:28;;;;;;;21.13;10.93;;;;;;;23.76;100.00;100500.34;7372539;19;20499;-37
2023/06/21 11:17:59;;;;;;;11.87;7.60;;;;;;;24.11;100.00;100502.38;7394907;19;20441;-37
2023/06/21 11:20:33;;;;;;;39.83;23.70;;;;;;;24.14;100.00;100530.44;7372259;19;20415;-38
2023/06/21 11:23:04;;;;;;;17.73;11.23;;;;;;;24.06;100.00;100529.69;7394630;19;20440;-38
2023/06/21 11:25:36;;;;;;;25.90;16.30;;;;;;;23.91;100.00;100580.88;7372146;19;20427;-36
2023/06/21 11:28:26;;;;;;;30.73;20.73;;;;;;;24.10;100.00;100574.41;7395879;19;20992;-38